createdAt,value
2018-10-06T00:01:51.699Z,78.42
2018-10-06T00:04:42.778Z,77.72
2018-10-06T00:07:33.955Z,79.62
2018-10-06T00:10:27.513Z,76.07
2018-10-06T00:13:19.037Z,65.67
2018-10-06T00:16:10.320Z,78.22
2018-10-06T00:19:02.256Z,73.10
2018-10-06T00:21:53.260Z,64.50
2018-10-06T00:24:44.329Z,68.62
2018-10-06T00:27:35.706Z,69.37
2018-10-06T00:30:27.257Z,79.58
2018-10-06T00:33:19.517Z,80.15
2018-10-06T00:36:10.710Z,92.25
2018-10-06T00:39:01.895Z,94.47
2018-10-06T00:41:57.101Z,110.70
2018-10-06T00:44:48.589Z,106.90
2018-10-06T00:47:41.584Z,98.17
2018-10-06T00:50:33.852Z,98.22
2018-10-06T00:53:28.709Z,89.22
2018-10-06T00:56:19.874Z,111.20
2018-10-06T00:59:11.530Z,105.40
2018-10-06T01:02:02.586Z,140.95
2018-10-06T01:04:54.145Z,115.85
2018-10-06T01:07:45.111Z,112.85
2018-10-06T01:10:36.236Z,86.22
2018-10-06T01:13:27.347Z,96.35
2018-10-06T01:16:18.315Z,93.90
2018-10-06T01:19:10.403Z,112.12
2018-10-06T01:22:01.446Z,102.90
2018-10-06T01:24:52.978Z,113.00
2018-10-06T01:27:44.044Z,126.42
2018-10-06T01:30:34.945Z,232.40
2018-10-06T01:33:26.693Z,128.62
2018-10-06T01:36:18.832Z,114.00
2018-10-06T01:39:10.858Z,115.55
2018-10-06T01:42:04.018Z,104.10
2018-10-06T01:44:55.004Z,91.60
2018-10-06T01:47:46.005Z,93.22
2018-10-06T01:50:36.694Z,93.37
2018-10-06T01:53:28.113Z,99.72
2018-10-06T01:56:19.313Z,114.30
2018-10-06T01:59:10.623Z,106.83
2018-10-06T02:02:01.255Z,111.37
2018-10-06T02:04:52.663Z,117.37
2018-10-06T02:07:43.727Z,120.90
2018-10-06T02:10:35.694Z,105.95
2018-10-06T02:13:26.860Z,124.92
2018-10-06T02:16:17.396Z,121.10
2018-10-06T02:19:08.723Z,120.30
2018-10-06T02:22:02.234Z,148.28
2018-10-06T02:24:53.284Z,121.30
2018-10-06T02:27:47.385Z,127.27
2018-10-06T02:30:37.866Z,127.70
2018-10-06T02:33:29.784Z,107.07
2018-10-06T02:36:21.188Z,96.25
2018-10-06T02:39:12.298Z,102.17
2018-10-06T02:42:04.020Z,116.03
2018-10-06T02:44:55.170Z,99.42
2018-10-06T02:47:46.804Z,106.75
2018-10-06T02:50:37.513Z,78.28
2018-10-06T02:53:30.097Z,74.87
2018-10-06T02:56:21.765Z,85.87
2018-10-06T02:59:13.318Z,75.37
2018-10-06T03:02:04.349Z,93.03
2018-10-06T03:04:56.130Z,91.92
2018-10-06T03:07:47.108Z,97.85
2018-10-06T03:10:37.864Z,95.60
2018-10-06T03:13:30.391Z,104.25
2018-10-06T03:16:22.058Z,96.97
2018-10-06T03:19:12.923Z,94.40
2018-10-06T03:22:04.779Z,106.47
2018-10-06T03:24:57.309Z,97.12
2018-10-06T03:27:47.910Z,102.67
2018-10-06T03:30:39.121Z,100.07
2018-10-06T03:33:30.927Z,122.55
2018-10-06T03:36:22.392Z,105.60
2018-10-06T03:39:14.201Z,117.67
2018-10-06T03:42:05.278Z,114.88
2018-10-06T03:44:57.391Z,114.17
2018-10-06T03:47:50.432Z,107.60
2018-10-06T03:50:42.263Z,101.78
2018-10-06T03:53:33.593Z,95.77
2018-10-06T03:56:24.937Z,70.72
2018-10-06T03:59:17.118Z,73.40
2018-10-06T04:02:08.893Z,90.80
2018-10-06T04:05:00.497Z,73.72
2018-10-06T04:07:52.060Z,64.97
2018-10-06T04:10:43.078Z,90.90
2018-10-06T04:13:35.468Z,68.62
2018-10-06T04:16:26.937Z,122.62
2018-10-06T04:19:18.250Z,99.17
2018-10-06T04:22:09.758Z,105.87
2018-10-06T04:25:01.084Z,80.57
2018-10-06T04:27:52.985Z,85.97
2018-10-06T04:30:44.224Z,98.37
2018-10-06T04:33:36.770Z,90.00
2018-10-06T04:36:27.951Z,114.70
2018-10-06T04:39:19.439Z,91.53
2018-10-06T04:42:09.857Z,113.75
2018-10-06T04:45:01.456Z,101.20
2018-10-06T04:47:54.152Z,127.02
2018-10-06T04:50:45.039Z,121.28
2018-10-06T04:53:36.032Z,126.12
2018-10-06T04:56:26.792Z,139.57
2018-10-06T04:59:18.226Z,129.85
2018-10-06T05:02:09.537Z,112.08
2018-10-06T05:05:00.885Z,107.40
2018-10-06T05:07:54.209Z,103.75
2018-10-06T05:10:46.053Z,114.72
2018-10-06T05:13:39.654Z,126.85
2018-10-06T05:16:32.756Z,135.35
2018-10-06T05:19:28.207Z,140.15
2018-10-06T05:22:21.776Z,139.20
2018-10-06T05:25:16.132Z,178.70
2018-10-06T05:28:13.002Z,159.05
2018-10-06T05:31:26.460Z,132.27
2018-10-06T05:34:38.579Z,130.07
2018-10-06T05:37:47.568Z,144.15
2018-10-06T05:40:46.177Z,128.80
2018-10-06T05:43:48.719Z,123.82
2018-10-06T05:47:17.548Z,130.32
2018-10-06T05:50:47.280Z,139.50
2018-10-06T05:53:51.640Z,139.88
2018-10-06T05:57:15.017Z,145.82
2018-10-06T06:00:14.875Z,153.93
2018-10-06T06:03:14.945Z,169.28
2018-10-06T06:06:14.479Z,151.95
2018-10-06T06:09:12.241Z,136.12
2018-10-06T06:12:10.079Z,158.18
2018-10-06T06:15:08.714Z,151.20
2018-10-06T06:18:05.729Z,149.12
2018-10-06T06:21:02.090Z,143.68
2018-10-06T06:24:06.676Z,149.53
2018-10-06T06:27:06.777Z,122.15
2018-10-06T06:30:11.387Z,125.02
2018-10-06T06:33:17.224Z,146.05
2018-10-06T06:36:15.671Z,132.47
2018-10-06T06:39:14.856Z,150.30
2018-10-06T06:42:13.065Z,139.12
2018-10-06T06:45:09.826Z,133.90
2018-10-06T06:48:14.276Z,146.50
2018-10-06T06:51:17.970Z,128.95
2018-10-06T06:54:16.990Z,132.25
2018-10-06T06:57:15.071Z,117.95
2018-10-06T07:00:16.482Z,124.97
2018-10-06T07:03:18.917Z,115.25
2018-10-06T07:06:12.955Z,127.12
2018-10-06T07:09:06.617Z,128.87
2018-10-06T07:12:06.783Z,135.72
2018-10-06T07:15:05.921Z,125.67
2018-10-06T07:18:12.388Z,123.97
2018-10-06T07:21:18.337Z,114.30
2018-10-06T07:24:13.881Z,114.35
2018-10-06T07:27:08.397Z,128.57
2018-10-06T07:30:08.833Z,113.88
2018-10-06T07:33:08.859Z,99.97
2018-10-06T07:36:05.667Z,117.85
2018-10-06T07:39:09.399Z,117.33
2018-10-06T07:42:05.195Z,134.57
2018-10-06T07:45:03.365Z,114.20
2018-10-06T07:48:08.257Z,116.45
2018-10-06T07:51:09.034Z,108.55
2018-10-06T07:54:08.455Z,109.32
2018-10-06T07:57:05.972Z,118.55
2018-10-06T08:00:00.353Z,103.35
2018-10-06T08:02:54.915Z,141.45
2018-10-06T08:05:51.196Z,125.87
2018-10-06T08:08:47.357Z,135.68
2018-10-06T08:11:40.300Z,126.70
2018-10-06T08:14:35.401Z,126.70
2018-10-06T08:17:28.735Z,163.28
2018-10-06T08:20:23.844Z,186.88
2018-10-06T08:23:22.542Z,167.80
2018-10-06T08:26:26.661Z,178.60
2018-10-06T08:29:32.575Z,185.60
2018-10-06T08:32:25.749Z,152.10
2018-10-06T08:35:20.512Z,159.48
2018-10-06T08:38:13.622Z,171.07
2018-10-06T08:41:08.929Z,157.82
2018-10-06T08:44:02.405Z,134.72
2018-10-06T08:46:55.520Z,146.35
2018-10-06T08:49:47.794Z,151.37
2018-10-06T08:52:39.019Z,146.70
2018-10-06T08:55:31.433Z,161.82
2018-10-06T09:01:46.429Z,166.88
2018-10-06T09:04:43.255Z,153.20
2018-10-06T09:07:48.661Z,138.18
2018-10-06T09:10:40.612Z,144.77
2018-10-06T09:13:33.780Z,137.10
2018-10-06T09:16:28.324Z,129.18
2018-10-06T09:19:21.952Z,148.90
2018-10-06T09:22:18.140Z,138.72
2018-10-06T09:25:15.666Z,140.82
2018-10-06T09:28:12.009Z,133.85
2018-10-06T09:31:09.934Z,129.97
2018-10-06T09:34:03.852Z,123.97
2018-10-06T09:38:22.026Z,108.95
2018-10-06T09:41:17.470Z,104.83
2018-10-06T09:44:12.801Z,99.75
2018-10-06T09:47:08.498Z,86.50
2018-10-06T09:50:08.484Z,83.25
2018-10-06T09:53:05.473Z,69.00
2018-10-06T09:56:01.791Z,65.00
2018-10-06T09:58:57.788Z,67.78
2018-10-06T10:02:00.538Z,73.37
2018-10-06T10:04:54.835Z,66.30
2018-10-06T10:07:50.780Z,76.17
2018-10-06T10:10:51.444Z,67.47
2018-10-06T10:13:52.522Z,86.05
2018-10-06T10:16:48.687Z,72.72
2018-10-06T10:19:42.534Z,66.70
2018-10-06T10:22:44.740Z,79.47
2018-10-06T10:25:41.857Z,71.90
2018-10-06T10:28:41.757Z,70.55
2018-10-06T10:31:35.969Z,51.75
2018-10-06T10:34:30.652Z,51.88
2018-10-06T10:40:33.943Z,55.73
2018-10-06T10:43:29.162Z,49.23
2018-10-06T10:46:26.652Z,53.55
2018-10-06T10:49:27.025Z,54.23
2018-10-06T10:52:21.994Z,63.25
2018-10-06T10:55:15.309Z,54.80
2018-10-06T10:58:16.107Z,59.80
2018-10-06T11:01:17.056Z,57.85
2018-10-06T11:04:20.194Z,62.55
2018-10-06T11:07:18.891Z,59.50
2018-10-06T11:10:17.932Z,68.83
2018-10-06T11:13:14.839Z,70.75
2018-10-06T11:16:14.476Z,73.12
2018-10-06T11:19:14.527Z,71.55
2018-10-06T11:22:17.514Z,65.95
2018-10-06T11:25:16.867Z,62.80
2018-10-06T11:28:14.549Z,60.33
2018-10-06T11:31:13.306Z,63.78
2018-10-06T11:34:13.783Z,61.65
2018-10-06T11:37:14.419Z,63.33
2018-10-06T11:40:12.075Z,70.75
2018-10-06T11:43:11.340Z,59.30
2018-10-06T11:46:06.214Z,74.47
2018-10-06T11:49:04.135Z,73.52
2018-10-06T11:51:58.850Z,85.70
2018-10-06T11:54:55.619Z,69.40
2018-10-06T11:57:49.230Z,66.90
2018-10-06T12:00:46.022Z,62.33
2018-10-06T12:03:43.777Z,63.75
2018-10-06T12:06:42.642Z,80.85
2018-10-06T12:09:42.623Z,71.55
2018-10-06T12:12:40.133Z,71.10
2018-10-06T12:15:34.235Z,71.67
2018-10-06T12:18:33.808Z,64.22
2018-10-06T12:21:27.805Z,70.50
2018-10-06T12:24:21.373Z,80.67
2018-10-06T12:27:25.494Z,76.45
2018-10-06T12:30:35.429Z,77.35
2018-10-06T12:33:27.692Z,101.60
2018-10-06T12:36:21.164Z,97.88
2018-10-06T12:39:14.252Z,99.30
2018-10-06T12:42:05.938Z,106.30
2018-10-06T12:44:59.903Z,115.62
2018-10-06T12:47:52.482Z,92.72
2018-10-06T12:50:43.688Z,98.92
2018-10-06T12:53:36.188Z,115.40
2018-10-06T12:56:30.028Z,109.32
2018-10-06T12:59:22.525Z,98.82
2018-10-06T13:02:19.746Z,120.17
2018-10-06T13:05:20.379Z,101.80
2018-10-06T13:08:13.216Z,95.17
2018-10-06T13:11:07.454Z,107.10
2018-10-06T13:14:01.531Z,119.53
2018-10-06T13:17:00.563Z,124.15
2018-10-06T13:19:58.154Z,120.02
2018-10-06T13:25:58.740Z,135.35
2018-10-06T13:28:53.452Z,115.82
2018-10-06T13:31:45.419Z,123.47
2018-10-06T13:34:41.930Z,94.30
2018-10-06T13:37:38.308Z,124.82
2018-10-06T13:40:29.555Z,122.33
2018-10-06T13:43:21.653Z,145.57
2018-10-06T13:46:13.772Z,156.85
2018-10-06T13:49:05.943Z,124.58
2018-10-06T13:52:03.437Z,122.22
2018-10-06T13:54:58.708Z,111.77
2018-10-06T13:57:52.694Z,121.90
2018-10-06T14:00:45.826Z,121.75
2018-10-06T14:03:37.587Z,143.57
2018-10-06T14:06:31.531Z,121.05
2018-10-06T14:09:22.761Z,114.65
2018-10-06T14:12:20.092Z,122.05
2018-10-06T14:15:11.857Z,122.92
2018-10-06T14:18:04.442Z,129.25
2018-10-06T14:20:58.441Z,126.67
2018-10-06T14:23:49.985Z,132.70
2018-10-06T14:26:42.825Z,132.43
2018-10-06T14:29:38.157Z,114.47
2018-10-06T14:32:29.869Z,146.85
2018-10-06T14:35:21.450Z,156.00
2018-10-06T14:38:14.829Z,152.90
2018-10-06T14:41:06.743Z,163.35
2018-10-06T14:43:58.072Z,153.47
2018-10-06T14:46:49.689Z,138.12
2018-10-06T14:49:40.653Z,156.35
2018-10-06T14:52:32.201Z,144.82
2018-10-06T14:55:24.507Z,150.60
2018-10-06T14:58:15.381Z,157.20
2018-10-06T15:01:06.272Z,156.00
2018-10-06T15:04:00.129Z,144.35
2018-10-06T15:06:51.661Z,171.10
2018-10-06T15:09:42.859Z,160.93
2018-10-06T15:12:34.556Z,132.97
2018-10-06T15:15:27.604Z,140.22
2018-10-06T15:18:20.128Z,140.82
2018-10-06T15:21:11.592Z,134.67
2018-10-06T15:24:03.254Z,129.27
2018-10-06T15:26:54.155Z,129.50
2018-10-06T15:29:45.598Z,140.00
2018-10-06T15:32:36.493Z,153.60
2018-10-06T15:35:27.463Z,142.05
2018-10-06T15:38:18.201Z,143.87
2018-10-06T15:41:09.787Z,152.17
2018-10-06T15:44:00.778Z,140.55
2018-10-06T15:46:52.249Z,162.40
2018-10-06T15:49:43.979Z,144.17
2018-10-06T15:52:35.534Z,153.62
2018-10-06T15:55:27.059Z,159.93
2018-10-06T15:58:18.092Z,169.43
2018-10-06T16:01:08.836Z,162.10
2018-10-06T16:04:00.079Z,160.57
2018-10-06T16:06:50.758Z,165.20
2018-10-06T16:09:43.365Z,150.05
2018-10-06T16:12:34.720Z,131.75
2018-10-06T16:15:28.089Z,137.88
2018-10-06T16:18:20.201Z,150.72
2018-10-06T16:21:11.531Z,154.20
2018-10-06T16:24:05.480Z,144.60
2018-10-06T16:26:56.584Z,153.20
2018-10-06T16:29:47.626Z,158.95
2018-10-06T16:32:38.958Z,143.82
2018-10-06T16:35:29.905Z,131.47
2018-10-06T16:38:21.035Z,127.72
2018-10-06T16:41:12.682Z,127.60
2018-10-06T16:44:05.229Z,129.40
2018-10-06T16:46:55.923Z,146.25
2018-10-06T16:49:46.737Z,151.12
2018-10-06T16:52:40.219Z,135.60
2018-10-06T16:55:31.617Z,129.85
2018-10-06T16:58:23.338Z,167.75
2018-10-06T17:01:16.733Z,151.55
2018-10-06T17:04:08.273Z,148.20
2018-10-06T17:07:01.091Z,145.43
2018-10-06T17:09:53.238Z,155.05
2018-10-06T17:12:44.660Z,158.82
2018-10-06T17:15:35.989Z,172.37
2018-10-06T17:18:28.874Z,202.22
2018-10-06T17:21:20.159Z,174.30
2018-10-06T17:24:11.683Z,187.82
2018-10-06T17:27:04.908Z,162.57
2018-10-06T17:29:56.568Z,155.72
2018-10-06T17:32:47.321Z,155.27
2018-10-06T17:35:38.944Z,143.37
2018-10-06T17:38:33.975Z,140.85
2018-10-06T17:41:27.682Z,152.85
2018-10-06T17:44:20.009Z,186.20
2018-10-06T17:47:11.748Z,181.93
2018-10-06T17:50:05.802Z,179.32
2018-10-06T17:52:57.611Z,176.37
2018-10-06T17:55:48.419Z,177.00
2018-10-06T17:58:39.803Z,183.95
2018-10-06T18:01:32.510Z,170.22
2018-10-06T18:04:25.132Z,157.52
2018-10-06T18:07:16.256Z,172.13
2018-10-06T18:10:07.270Z,153.80
2018-10-06T18:12:58.555Z,196.28
2018-10-06T18:15:51.859Z,193.78
2018-10-06T18:18:44.800Z,217.82
2018-10-06T18:21:35.896Z,191.50
2018-10-06T18:24:27.409Z,198.30
2018-10-06T18:27:20.425Z,173.93
2018-10-06T18:30:13.649Z,193.37
2018-10-06T18:33:05.234Z,185.05
2018-10-06T18:35:56.272Z,166.22
2018-10-06T18:38:47.541Z,193.62
2018-10-06T18:41:38.087Z,189.20
2018-10-06T18:44:31.120Z,191.18
2018-10-06T18:47:22.228Z,200.07
2018-10-06T18:50:13.266Z,187.68
2018-10-06T18:53:05.383Z,187.32
2018-10-06T18:55:56.268Z,230.90
2018-10-06T18:58:47.541Z,198.38
2018-10-06T19:01:38.222Z,184.28
2018-10-06T19:04:29.166Z,190.18
2018-10-06T19:07:20.663Z,184.52
2018-10-06T19:10:11.692Z,200.43
2018-10-06T19:13:03.498Z,170.43
2018-10-06T19:15:58.699Z,168.32
2018-10-06T19:18:50.407Z,183.15
2018-10-06T19:21:41.356Z,183.97
2018-10-06T19:24:32.807Z,175.30
2018-10-06T19:27:24.436Z,170.28
2018-10-06T19:30:18.282Z,160.43
2018-10-06T19:33:10.072Z,147.53
2018-10-06T19:36:01.973Z,156.47
2018-10-06T19:38:52.741Z,159.87
2018-10-06T19:41:43.711Z,176.30
2018-10-06T19:44:34.545Z,164.47
2018-10-06T19:47:25.766Z,161.60
2018-10-06T19:50:16.327Z,147.53
2018-10-06T19:53:07.543Z,179.20
2018-10-06T19:55:58.670Z,165.80
2018-10-06T19:58:50.626Z,165.60
2018-10-06T20:01:41.673Z,157.67
2018-10-06T20:04:32.758Z,147.55
2018-10-06T20:07:24.567Z,160.88
2018-10-06T20:10:20.398Z,146.25
2018-10-06T20:13:11.289Z,158.22
2018-10-06T20:16:02.607Z,158.82
2018-10-06T20:18:55.197Z,157.35
2018-10-06T20:21:46.405Z,156.97
2018-10-06T20:24:38.139Z,161.55
2018-10-06T20:27:29.231Z,171.00
2018-10-06T20:30:20.022Z,150.18
2018-10-06T20:33:11.161Z,165.95
2018-10-06T20:36:02.705Z,176.65
2018-10-06T20:38:54.961Z,171.50
2018-10-06T20:41:45.909Z,155.10
2018-10-06T20:44:36.867Z,157.07
2018-10-06T20:47:28.115Z,152.20
2018-10-06T20:50:19.558Z,161.03
2018-10-06T20:53:10.425Z,167.90
2018-10-06T20:56:01.397Z,161.62
2018-10-06T20:58:53.123Z,163.62
2018-10-06T21:01:43.940Z,154.23
2018-10-06T21:04:34.718Z,150.90
2018-10-06T21:07:25.532Z,157.62
2018-10-06T21:10:16.580Z,157.40
2018-10-06T21:13:07.715Z,162.27
2018-10-06T21:15:59.530Z,172.65
2018-10-06T21:18:59.508Z,163.68
2018-10-06T21:21:50.969Z,164.97
2018-10-06T21:24:42.610Z,165.75
2018-10-06T21:27:34.116Z,191.80
2018-10-06T21:30:24.530Z,198.05
2018-10-06T21:33:15.701Z,182.62
2018-10-06T21:36:07.076Z,170.22
2018-10-06T21:38:57.894Z,150.53
2018-10-06T21:41:50.270Z,155.80
2018-10-06T21:44:41.605Z,163.52
2018-10-06T21:47:32.624Z,145.10
2018-10-06T21:50:22.754Z,155.15
2018-10-06T21:53:16.531Z,152.87
2018-10-06T21:56:07.257Z,145.80
2018-10-06T21:58:58.280Z,146.68
2018-10-06T22:01:48.886Z,156.97
2018-10-06T22:04:40.401Z,150.30
2018-10-06T22:07:32.136Z,152.70
2018-10-06T22:10:26.935Z,140.28
2018-10-06T22:13:19.092Z,153.05
2018-10-06T22:16:10.521Z,142.03
2018-10-06T22:19:03.538Z,145.32
2018-10-06T22:21:54.885Z,152.53
2018-10-06T22:24:45.929Z,149.38
2018-10-06T22:27:37.211Z,139.62
2018-10-06T22:30:27.559Z,147.10
2018-10-06T22:33:19.184Z,147.78
2018-10-06T22:36:12.642Z,151.95
2018-10-06T22:39:04.119Z,161.00
2018-10-06T22:41:55.854Z,149.90
2018-10-06T22:44:47.586Z,159.20
2018-10-06T22:47:38.361Z,158.82
2018-10-06T22:50:31.402Z,147.70
2018-10-06T22:54:47.723Z,167.90
2018-10-06T22:57:39.058Z,183.62
2018-10-06T23:00:34.288Z,183.62
2018-10-06T23:03:25.200Z,169.77
2018-10-06T23:06:15.636Z,177.53
2018-10-06T23:09:07.115Z,199.10
2018-10-06T23:12:00.801Z,191.07
2018-10-06T23:14:52.984Z,205.30
2018-10-06T23:17:44.378Z,197.32
2018-10-06T23:20:36.663Z,191.65
2018-10-06T23:23:27.634Z,192.80
2018-10-06T23:26:20.748Z,191.37
2018-10-06T23:29:11.696Z,205.98
2018-10-06T23:32:02.960Z,213.50
2018-10-06T23:34:54.314Z,182.12
2018-10-06T23:37:45.436Z,192.72
2018-10-06T23:40:36.129Z,188.15
2018-10-06T23:43:28.474Z,181.15
2018-10-06T23:46:22.496Z,183.20
2018-10-06T23:49:13.795Z,180.67
2018-10-06T23:52:04.688Z,181.93
2018-10-06T23:54:55.736Z,199.45
2018-10-06T23:57:47.164Z,184.13
